sensor_id;sensor_type;location;lat;lon;timestamp;P1;durP1;ratioP1;P2;durP2;ratioP2
69030;SDS011;56083;48.774;8.942;2022-11-12T00:02:20;58.20;;;18.67;;
69030;SDS011;56083;48.774;8.942;2022-11-12T00:04:46;64.57;;;20.30;;
69030;SDS011;56083;48.774;8.942;2022-11-12T00:07:12;55.88;;;19.75;;
69030;SDS011;56083;48.774;8.942;2022-11-12T00:09:38;70.10;;;19.95;;
69030;SDS011;56083;48.774;8.942;2022-11-12T00:12:04;77.53;;;22.65;;
69030;SDS011;56083;48.774;8.942;2022-11-12T00:14:30;79.50;;;21.15;;
69030;SDS011;56083;48.774;8.942;2022-11-12T00:16:56;86.95;;;22.70;;
69030;SDS011;56083;48.774;8.942;2022-11-12T00:19:22;90.30;;;23.45;;
69030;SDS011;56083;48.774;8.942;2022-11-12T00:21:48;94.97;;;23.23;;
69030;SDS011;56083;48.774;8.942;2022-11-12T00:24:14;91.47;;;22.08;;
69030;SDS011;56083;48.774;8.942;2022-11-12T00:26:40;108.13;;;22.98;;
69030;SDS011;56083;48.774;8.942;2022-11-12T00:29:06;156.18;;;25.08;;
69030;SDS011;56083;48.774;8.942;2022-11-12T00:31:32;85.68;;;22.73;;
69030;SDS011;56083;48.774;8.942;2022-11-12T00:33:58;87.55;;;22.00;;
69030;SDS011;56083;48.774;8.942;2022-11-12T00:36:24;89.35;;;21.65;;
69030;SDS011;56083;48.774;8.942;2022-11-12T00:38:50;119.95;;;22.00;;
69030;SDS011;56083;48.774;8.942;2022-11-12T00:41:16;92.55;;;21.27;;
69030;SDS011;56083;48.774;8.942;2022-11-12T00:43:42;125.05;;;23.52;;
69030;SDS011;56083;48.774;8.942;2022-11-12T00:46:08;89.60;;;22.88;;
69030;SDS011;56083;48.774;8.942;2022-11-12T00:48:34;103.07;;;23.00;;
69030;SDS011;56083;48.774;8.942;2022-11-12T00:51:02;138.63;;;21.02;;
69030;SDS011;56083;48.774;8.942;2022-11-12T00:53:28;141.00;;;24.23;;
69030;SDS011;56083;48.774;8.942;2022-11-12T00:55:58;91.30;;;20.90;;
69030;SDS011;56083;48.774;8.942;2022-11-12T00:58:26;138.75;;;23.35;;
69030;SDS011;56083;48.774;8.942;2022-11-12T01:00:52;76.88;;;22.20;;
69030;SDS011;56083;48.774;8.942;2022-11-12T01:03:18;67.80;;;21.38;;
69030;SDS011;56083;48.774;8.942;2022-11-12T01:05:44;71.30;;;22.25;;
69030;SDS011;56083;48.774;8.942;2022-11-12T01:08:10;76.63;;;20.30;;
69030;SDS011;56083;48.774;8.942;2022-11-12T01:10:36;76.35;;;22.17;;
69030;SDS011;56083;48.774;8.942;2022-11-12T01:13:02;42.00;;;20.00;;
69030;SDS011;56083;48.774;8.942;2022-11-12T01:15:28;53.28;;;20.15;;
69030;SDS011;56083;48.774;8.942;2022-11-12T01:17:54;68.93;;;20.73;;
69030;SDS011;56083;48.774;8.942;2022-11-12T01:20:20;75.93;;;20.90;;
69030;SDS011;56083;48.774;8.942;2022-11-12T01:22:46;90.47;;;21.10;;
69030;SDS011;56083;48.774;8.942;2022-11-12T01:25:12;69.78;;;19.35;;
69030;SDS011;56083;48.774;8.942;2022-11-12T01:27:38;55.92;;;18.48;;
69030;SDS011;56083;48.774;8.942;2022-11-12T01:30:05;98.03;;;20.02;;
69030;SDS011;56083;48.774;8.942;2022-11-12T01:32:34;109.75;;;20.65;;
69030;SDS011;56083;48.774;8.942;2022-11-12T01:35:01;88.53;;;19.73;;
69030;SDS011;56083;48.774;8.942;2022-11-12T01:37:27;135.82;;;20.33;;
69030;SDS011;56083;48.774;8.942;2022-11-12T01:39:53;131.68;;;21.15;;
69030;SDS011;56083;48.774;8.942;2022-11-12T01:42:19;41.58;;;17.27;;
69030;SDS011;56083;48.774;8.942;2022-11-12T01:44:45;68.28;;;17.73;;
69030;SDS011;56083;48.774;8.942;2022-11-12T01:47:19;107.68;;;20.23;;
69030;SDS011;56083;48.774;8.942;2022-11-12T01:52:23;197.27;;;19.80;;
69030;SDS011;56083;48.774;8.942;2022-11-12T01:54:52;82.15;;;18.95;;
69030;SDS011;56083;48.774;8.942;2022-11-12T01:57:22;112.13;;;22.30;;
69030;SDS011;56083;48.774;8.942;2022-11-12T01:59:49;74.80;;;20.60;;
69030;SDS011;56083;48.774;8.942;2022-11-12T02:02:16;168.25;;;22.88;;
69030;SDS011;56083;48.774;8.942;2022-11-12T02:04:42;178.40;;;22.92;;
69030;SDS011;56083;48.774;8.942;2022-11-12T02:07:09;220.82;;;21.08;;
69030;SDS011;56083;48.774;8.942;2022-11-12T02:09:35;199.93;;;23.95;;
69030;SDS011;56083;48.774;8.942;2022-11-12T02:12:01;166.20;;;22.92;;
69030;SDS011;56083;48.774;8.942;2022-11-12T02:14:27;207.00;;;21.77;;
69030;SDS011;56083;48.774;8.942;2022-11-12T02:16:53;280.52;;;22.15;;
69030;SDS011;56083;48.774;8.942;2022-11-12T02:19:19;197.40;;;20.35;;
69030;SDS011;56083;48.774;8.942;2022-11-12T02:21:45;258.83;;;20.55;;
69030;SDS011;56083;48.774;8.942;2022-11-12T02:26:39;190.98;;;21.05;;
69030;SDS011;56083;48.774;8.942;2022-11-12T02:29:06;129.27;;;19.98;;
69030;SDS011;56083;48.774;8.942;2022-11-12T02:31:32;89.97;;;20.80;;
69030;SDS011;56083;48.774;8.942;2022-11-12T02:33:58;127.47;;;20.40;;
69030;SDS011;56083;48.774;8.942;2022-11-12T02:36:24;108.07;;;20.02;;
69030;SDS011;56083;48.774;8.942;2022-11-12T02:38:50;102.05;;;20.80;;
69030;SDS011;56083;48.774;8.942;2022-11-12T02:41:16;62.83;;;20.73;;
69030;SDS011;56083;48.774;8.942;2022-11-12T02:43:42;85.47;;;21.00;;
69030;SDS011;56083;48.774;8.942;2022-11-12T02:46:08;83.40;;;21.88;;
69030;SDS011;56083;48.774;8.942;2022-11-12T02:48:35;63.72;;;21.10;;
69030;SDS011;56083;48.774;8.942;2022-11-12T02:51:01;61.65;;;21.55;;
69030;SDS011;56083;48.774;8.942;2022-11-12T02:53:27;56.78;;;22.20;;
69030;SDS011;56083;48.774;8.942;2022-11-12T02:55:53;63.08;;;21.70;;
69030;SDS011;56083;48.774;8.942;2022-11-12T02:58:19;45.08;;;22.67;;
69030;SDS011;56083;48.774;8.942;2022-11-12T03:00:47;56.28;;;22.60;;
69030;SDS011;56083;48.774;8.942;2022-11-12T03:03:13;49.63;;;22.35;;
69030;SDS011;56083;48.774;8.942;2022-11-12T03:05:39;54.22;;;23.83;;
69030;SDS011;56083;48.774;8.942;2022-11-12T03:08:05;44.05;;;22.40;;
69030;SDS011;56083;48.774;8.942;2022-11-12T03:10:32;47.17;;;22.42;;
69030;SDS011;56083;48.774;8.942;2022-11-12T03:12:58;41.53;;;22.15;;
69030;SDS011;56083;48.774;8.942;2022-11-12T03:15:25;38.45;;;20.85;;
69030;SDS011;56083;48.774;8.942;2022-11-12T03:17:51;40.90;;;21.48;;
69030;SDS011;56083;48.774;8.942;2022-11-12T03:20:17;39.72;;;21.10;;
69030;SDS011;56083;48.774;8.942;2022-11-12T03:22:53;39.25;;;20.77;;
69030;SDS011;56083;48.774;8.942;2022-11-12T03:25:19;38.85;;;20.20;;
69030;SDS011;56083;48.774;8.942;2022-11-12T03:27:45;44.25;;;22.50;;
69030;SDS011;56083;48.774;8.942;2022-11-12T03:30:11;45.50;;;22.95;;
69030;SDS011;56083;48.774;8.942;2022-11-12T03:32:37;39.65;;;21.83;;
69030;SDS011;56083;48.774;8.942;2022-11-12T03:35:03;38.85;;;20.98;;
69030;SDS011;56083;48.774;8.942;2022-11-12T03:37:29;37.47;;;20.70;;
69030;SDS011;56083;48.774;8.942;2022-11-12T03:39:55;39.88;;;21.15;;
69030;SDS011;56083;48.774;8.942;2022-11-12T03:42:21;41.70;;;21.20;;
69030;SDS011;56083;48.774;8.942;2022-11-12T03:44:47;43.92;;;21.38;;
69030;SDS011;56083;48.774;8.942;2022-11-12T03:47:13;41.30;;;21.48;;
69030;SDS011;56083;48.774;8.942;2022-11-12T03:49:39;44.03;;;22.13;;
69030;SDS011;56083;48.774;8.942;2022-11-12T03:52:05;42.63;;;21.35;;
69030;SDS011;56083;48.774;8.942;2022-11-12T03:54:31;41.03;;;20.92;;
69030;SDS011;56083;48.774;8.942;2022-11-12T03:56:57;40.45;;;20.63;;
69030;SDS011;56083;48.774;8.942;2022-11-12T03:59:23;36.63;;;20.05;;
69030;SDS011;56083;48.774;8.942;2022-11-12T04:01:49;38.90;;;19.83;;
69030;SDS011;56083;48.774;8.942;2022-11-12T04:04:15;37.95;;;19.90;;
69030;SDS011;56083;48.774;8.942;2022-11-12T04:06:41;29.92;;;17.58;;
69030;SDS011;56083;48.774;8.942;2022-11-12T04:09:45;33.58;;;17.98;;
69030;SDS011;56083;48.774;8.942;2022-11-12T04:12:11;34.55;;;17.55;;
69030;SDS011;56083;48.774;8.942;2022-11-12T04:14:55;33.05;;;17.95;;
69030;SDS011;56083;48.774;8.942;2022-11-12T04:17:21;31.95;;;18.05;;
69030;SDS011;56083;48.774;8.942;2022-11-12T04:20:07;30.63;;;17.67;;
69030;SDS011;56083;48.774;8.942;2022-11-12T04:22:52;28.58;;;17.05;;
69030;SDS011;56083;48.774;8.942;2022-11-12T04:25:18;33.17;;;18.33;;
69030;SDS011;56083;48.774;8.942;2022-11-12T04:28:03;31.45;;;17.98;;
69030;SDS011;56083;48.774;8.942;2022-11-12T04:30:29;31.35;;;17.98;;
69030;SDS011;56083;48.774;8.942;2022-11-12T04:32:55;30.90;;;17.88;;
69030;SDS011;56083;48.774;8.942;2022-11-12T04:35:23;32.58;;;17.83;;
69030;SDS011;56083;48.774;8.942;2022-11-12T04:37:49;30.85;;;17.50;;
69030;SDS011;56083;48.774;8.942;2022-11-12T04:40:23;37.45;;;18.70;;
69030;SDS011;56083;48.774;8.942;2022-11-12T04:43:09;32.78;;;17.58;;
69030;SDS011;56083;48.774;8.942;2022-11-12T04:45:54;31.65;;;17.02;;
69030;SDS011;56083;48.774;8.942;2022-11-12T04:48:21;33.70;;;18.50;;
69030;SDS011;56083;48.774;8.942;2022-11-12T04:50:52;35.92;;;19.35;;
69030;SDS011;56083;48.774;8.942;2022-11-12T04:53:19;36.10;;;19.02;;
69030;SDS011;56083;48.774;8.942;2022-11-12T04:55:48;34.00;;;18.45;;
69030;SDS011;56083;48.774;8.942;2022-11-12T04:58:14;30.10;;;18.40;;
69030;SDS011;56083;48.774;8.942;2022-11-12T05:00:40;30.25;;;18.20;;
69030;SDS011;56083;48.774;8.942;2022-11-12T05:03:06;35.40;;;19.60;;
69030;SDS011;56083;48.774;8.942;2022-11-12T05:05:32;32.78;;;18.48;;
69030;SDS011;56083;48.774;8.942;2022-11-12T05:07:59;33.42;;;19.08;;
69030;SDS011;56083;48.774;8.942;2022-11-12T05:10:25;33.63;;;18.27;;
69030;SDS011;56083;48.774;8.942;2022-11-12T05:12:51;31.20;;;17.77;;
69030;SDS011;56083;48.774;8.942;2022-11-12T05:15:17;29.00;;;17.33;;
69030;SDS011;56083;48.774;8.942;2022-11-12T05:17:43;35.83;;;18.23;;
69030;SDS011;56083;48.774;8.942;2022-11-12T05:20:09;33.45;;;18.08;;
69030;SDS011;56083;48.774;8.942;2022-11-12T05:22:35;30.60;;;17.42;;
69030;SDS011;56083;48.774;8.942;2022-11-12T05:25:02;33.22;;;17.90;;
69030;SDS011;56083;48.774;8.942;2022-11-12T05:27:28;30.35;;;17.38;;
69030;SDS011;56083;48.774;8.942;2022-11-12T05:29:54;31.10;;;16.95;;
69030;SDS011;56083;48.774;8.942;2022-11-12T05:32:20;34.00;;;18.25;;
69030;SDS011;56083;48.774;8.942;2022-11-12T05:34:46;34.05;;;18.00;;
69030;SDS011;56083;48.774;8.942;2022-11-12T05:37:12;32.40;;;17.92;;
69030;SDS011;56083;48.774;8.942;2022-11-12T05:39:38;32.92;;;18.23;;
69030;SDS011;56083;48.774;8.942;2022-11-12T05:42:04;32.70;;;16.73;;
69030;SDS011;56083;48.774;8.942;2022-11-12T05:44:30;33.35;;;17.02;;
69030;SDS011;56083;48.774;8.942;2022-11-12T05:46:56;30.63;;;17.98;;
69030;SDS011;56083;48.774;8.942;2022-11-12T05:49:22;28.15;;;16.85;;
69030;SDS011;56083;48.774;8.942;2022-11-12T05:51:48;30.10;;;17.15;;
69030;SDS011;56083;48.774;8.942;2022-11-12T05:54:15;28.15;;;16.33;;
69030;SDS011;56083;48.774;8.942;2022-11-12T05:56:41;26.63;;;16.50;;
69030;SDS011;56083;48.774;8.942;2022-11-12T05:59:10;26.45;;;15.55;;
69030;SDS011;56083;48.774;8.942;2022-11-12T06:01:37;28.15;;;16.63;;
69030;SDS011;56083;48.774;8.942;2022-11-12T06:04:11;27.00;;;15.52;;
69030;SDS011;56083;48.774;8.942;2022-11-12T06:06:38;26.70;;;16.38;;
69030;SDS011;56083;48.774;8.942;2022-11-12T06:09:04;25.85;;;15.48;;
69030;SDS011;56083;48.774;8.942;2022-11-12T06:11:30;26.65;;;15.23;;
69030;SDS011;56083;48.774;8.942;2022-11-12T06:13:57;27.30;;;16.02;;
69030;SDS011;56083;48.774;8.942;2022-11-12T06:16:23;25.40;;;14.90;;
69030;SDS011;56083;48.774;8.942;2022-11-12T06:18:50;26.75;;;15.15;;
69030;SDS011;56083;48.774;8.942;2022-11-12T06:21:16;24.45;;;14.55;;
69030;SDS011;56083;48.774;8.942;2022-11-12T06:23:47;29.40;;;15.15;;
69030;SDS011;56083;48.774;8.942;2022-11-12T06:26:13;25.10;;;15.25;;
69030;SDS011;56083;48.774;8.942;2022-11-12T06:28:39;25.65;;;15.65;;
69030;SDS011;56083;48.774;8.942;2022-11-12T06:31:05;26.85;;;15.48;;
69030;SDS011;56083;48.774;8.942;2022-11-12T06:33:31;25.50;;;15.35;;
69030;SDS011;56083;48.774;8.942;2022-11-12T06:35:58;27.02;;;15.35;;
69030;SDS011;56083;48.774;8.942;2022-11-12T06:38:27;28.00;;;16.73;;
69030;SDS011;56083;48.774;8.942;2022-11-12T06:40:54;27.00;;;15.57;;
69030;SDS011;56083;48.774;8.942;2022-11-12T06:43:20;27.83;;;15.43;;
69030;SDS011;56083;48.774;8.942;2022-11-12T06:45:46;25.90;;;16.10;;
69030;SDS011;56083;48.774;8.942;2022-11-12T06:48:12;26.40;;;15.60;;
69030;SDS011;56083;48.774;8.942;2022-11-12T06:50:38;24.15;;;15.52;;
69030;SDS011;56083;48.774;8.942;2022-11-12T06:53:04;25.45;;;15.80;;
69030;SDS011;56083;48.774;8.942;2022-11-12T06:55:30;26.65;;;16.48;;
69030;SDS011;56083;48.774;8.942;2022-11-12T06:57:56;27.67;;;16.58;;
69030;SDS011;56083;48.774;8.942;2022-11-12T07:00:22;23.40;;;15.13;;
69030;SDS011;56083;48.774;8.942;2022-11-12T07:02:48;22.90;;;14.70;;
69030;SDS011;56083;48.774;8.942;2022-11-12T07:05:14;23.10;;;15.18;;
69030;SDS011;56083;48.774;8.942;2022-11-12T07:07:40;17.85;;;12.35;;
69030;SDS011;56083;48.774;8.942;2022-11-12T07:10:06;17.73;;;12.35;;
69030;SDS011;56083;48.774;8.942;2022-11-12T07:12:32;14.18;;;9.93;;
69030;SDS011;56083;48.774;8.942;2022-11-12T07:14:58;15.05;;;10.05;;
69030;SDS011;56083;48.774;8.942;2022-11-12T07:17:24;10.48;;;8.00;;
69030;SDS011;56083;48.774;8.942;2022-11-12T07:19:50;10.35;;;7.97;;
69030;SDS011;56083;48.774;8.942;2022-11-12T07:22:16;20.90;;;14.18;;
69030;SDS011;56083;48.774;8.942;2022-11-12T07:24:42;15.57;;;10.20;;
69030;SDS011;56083;48.774;8.942;2022-11-12T07:27:08;6.40;;;5.20;;
69030;SDS011;56083;48.774;8.942;2022-11-12T07:29:34;11.63;;;8.13;;
69030;SDS011;56083;48.774;8.942;2022-11-12T07:32:00;8.35;;;7.03;;
69030;SDS011;56083;48.774;8.942;2022-11-12T07:34:26;4.93;;;4.03;;
69030;SDS011;56083;48.774;8.942;2022-11-12T07:36:52;6.22;;;4.20;;
69030;SDS011;56083;48.774;8.942;2022-11-12T07:39:18;5.22;;;3.47;;
69030;SDS011;56083;48.774;8.942;2022-11-12T07:41:44;4.45;;;3.80;;
69030;SDS011;56083;48.774;8.942;2022-11-12T07:44:10;11.77;;;9.43;;
69030;SDS011;56083;48.774;8.942;2022-11-12T07:46:36;5.40;;;4.35;;
69030;SDS011;56083;48.774;8.942;2022-11-12T07:49:02;8.32;;;5.55;;
69030;SDS011;56083;48.774;8.942;2022-11-12T07:51:28;7.15;;;5.43;;
69030;SDS011;56083;48.774;8.942;2022-11-12T07:53:55;6.88;;;5.40;;
69030;SDS011;56083;48.774;8.942;2022-11-12T07:56:22;7.43;;;5.45;;
69030;SDS011;56083;48.774;8.942;2022-11-12T07:58:49;5.13;;;4.40;;
69030;SDS011;56083;48.774;8.942;2022-11-12T08:03:50;4.00;;;2.90;;
69030;SDS011;56083;48.774;8.942;2022-11-12T08:06:16;3.05;;;2.75;;
69030;SDS011;56083;48.774;8.942;2022-11-12T08:08:42;6.18;;;3.08;;
69030;SDS011;56083;48.774;8.942;2022-11-12T08:11:08;2.85;;;2.40;;
69030;SDS011;56083;48.774;8.942;2022-11-12T08:13:34;3.78;;;2.10;;
69030;SDS011;56083;48.774;8.942;2022-11-12T08:16:00;2.47;;;1.95;;
69030;SDS011;56083;48.774;8.942;2022-11-12T08:18:27;2.03;;;1.50;;
69030;SDS011;56083;48.774;8.942;2022-11-12T08:21:03;4.18;;;1.98;;
69030;SDS011;56083;48.774;8.942;2022-11-12T08:23:29;3.85;;;3.08;;
69030;SDS011;56083;48.774;8.942;2022-11-12T08:25:56;2.60;;;2.40;;
69030;SDS011;56083;48.774;8.942;2022-11-12T08:28:22;2.05;;;1.85;;
69030;SDS011;56083;48.774;8.942;2022-11-12T08:30:48;2.85;;;2.25;;
69030;SDS011;56083;48.774;8.942;2022-11-12T08:33:14;2.85;;;1.80;;
69030;SDS011;56083;48.774;8.942;2022-11-12T08:35:40;3.28;;;2.17;;
69030;SDS011;56083;48.774;8.942;2022-11-12T08:38:06;2.78;;;2.20;;
69030;SDS011;56083;48.774;8.942;2022-11-12T08:40:34;2.85;;;2.15;;
69030;SDS011;56083;48.774;8.942;2022-11-12T08:43:01;2.42;;;2.22;;
69030;SDS011;56083;48.774;8.942;2022-11-12T08:45:28;3.58;;;2.17;;
69030;SDS011;56083;48.774;8.942;2022-11-12T08:47:57;3.75;;;2.30;;
69030;SDS011;56083;48.774;8.942;2022-11-12T08:50:24;2.78;;;2.22;;
69030;SDS011;56083;48.774;8.942;2022-11-12T08:52:50;5.40;;;2.50;;
69030;SDS011;56083;48.774;8.942;2022-11-12T08:55:16;2.80;;;2.08;;
69030;SDS011;56083;48.774;8.942;2022-11-12T08:57:42;3.45;;;2.40;;
69030;SDS011;56083;48.774;8.942;2022-11-12T09:00:09;3.60;;;2.35;;
69030;SDS011;56083;48.774;8.942;2022-11-12T09:02:36;3.10;;;2.45;;
69030;SDS011;56083;48.774;8.942;2022-11-12T09:05:02;3.90;;;2.35;;
69030;SDS011;56083;48.774;8.942;2022-11-12T09:07:28;2.60;;;2.30;;
69030;SDS011;56083;48.774;8.942;2022-11-12T09:09:54;2.83;;;2.20;;
69030;SDS011;56083;48.774;8.942;2022-11-12T09:12:20;4.30;;;2.40;;
69030;SDS011;56083;48.774;8.942;2022-11-12T09:14:46;3.97;;;2.30;;
69030;SDS011;56083;48.774;8.942;2022-11-12T09:17:12;4.30;;;2.10;;
69030;SDS011;56083;48.774;8.942;2022-11-12T09:19:38;2.47;;;2.17;;
69030;SDS011;56083;48.774;8.942;2022-11-12T09:22:04;2.72;;;2.40;;
69030;SDS011;56083;48.774;8.942;2022-11-12T09:24:30;2.33;;;1.98;;
69030;SDS011;56083;48.774;8.942;2022-11-12T09:26:56;4.70;;;2.05;;
69030;SDS011;56083;48.774;8.942;2022-11-12T09:29:22;4.25;;;2.30;;
69030;SDS011;56083;48.774;8.942;2022-11-12T09:31:48;4.50;;;2.47;;
69030;SDS011;56083;48.774;8.942;2022-11-12T09:34:15;2.58;;;2.00;;
69030;SDS011;56083;48.774;8.942;2022-11-12T09:36:41;2.17;;;1.80;;
69030;SDS011;56083;48.774;8.942;2022-11-12T09:39:07;1.90;;;1.70;;
69030;SDS011;56083;48.774;8.942;2022-11-12T09:41:34;3.03;;;2.15;;
69030;SDS011;56083;48.774;8.942;2022-11-12T09:44:02;2.92;;;1.90;;
69030;SDS011;56083;48.774;8.942;2022-11-12T09:49:17;2.80;;;2.08;;
69030;SDS011;56083;48.774;8.942;2022-11-12T09:51:48;4.32;;;2.28;;
69030;SDS011;56083;48.774;8.942;2022-11-12T09:56:41;2.85;;;1.70;;
69030;SDS011;56083;48.774;8.942;2022-11-12T09:59:10;2.80;;;1.70;;
69030;SDS011;56083;48.774;8.942;2022-11-12T10:01:39;1.90;;;1.50;;
69030;SDS011;56083;48.774;8.942;2022-11-12T10:04:18;3.38;;;1.40;;
69030;SDS011;56083;48.774;8.942;2022-11-12T10:15:02;2.65;;;1.55;;
69030;SDS011;56083;48.774;8.942;2022-11-12T10:17:56;2.40;;;1.42;;
69030;SDS011;56083;48.774;8.942;2022-11-12T10:20:27;1.92;;;1.40;;
69030;SDS011;56083;48.774;8.942;2022-11-12T10:25:20;2.80;;;1.58;;
69030;SDS011;56083;48.774;8.942;2022-11-12T10:27:47;5.65;;;1.60;;
69030;SDS011;56083;48.774;8.942;2022-11-12T10:32:41;1.77;;;1.60;;
69030;SDS011;56083;48.774;8.942;2022-11-12T10:35:09;1.92;;;1.60;;
69030;SDS011;56083;48.774;8.942;2022-11-12T10:42:57;3.40;;;1.77;;
69030;SDS011;56083;48.774;8.942;2022-11-12T10:45:23;5.18;;;2.22;;
69030;SDS011;56083;48.774;8.942;2022-11-12T10:47:50;3.40;;;1.90;;
69030;SDS011;56083;48.774;8.942;2022-11-12T10:50:35;3.70;;;2.08;;
69030;SDS011;56083;48.774;8.942;2022-11-12T10:53:06;2.85;;;1.80;;
69030;SDS011;56083;48.774;8.942;2022-11-12T10:55:34;3.80;;;1.60;;
69030;SDS011;56083;48.774;8.942;2022-11-12T11:00:30;2.20;;;1.40;;
69030;SDS011;56083;48.774;8.942;2022-11-12T11:02:56;1.55;;;1.10;;
69030;SDS011;56083;48.774;8.942;2022-11-12T11:05:29;1.92;;;1.30;;
69030;SDS011;56083;48.774;8.942;2022-11-12T11:07:56;2.85;;;1.40;;
69030;SDS011;56083;48.774;8.942;2022-11-12T11:10:30;2.85;;;1.30;;
69030;SDS011;56083;48.774;8.942;2022-11-12T11:15:41;2.20;;;1.30;;
69030;SDS011;56083;48.774;8.942;2022-11-12T11:18:21;6.50;;;1.38;;
69030;SDS011;56083;48.774;8.942;2022-11-12T11:20:49;2.40;;;1.10;;
69030;SDS011;56083;48.774;8.942;2022-11-12T11:23:22;1.63;;;1.00;;
69030;SDS011;56083;48.774;8.942;2022-11-12T11:25:51;1.92;;;1.15;;
69030;SDS011;56083;48.774;8.942;2022-11-12T11:28:26;1.73;;;1.30;;
69030;SDS011;56083;48.774;8.942;2022-11-12T11:31:43;3.17;;;1.10;;
69030;SDS011;56083;48.774;8.942;2022-11-12T11:33:45;1.85;;;1.10;;
69030;SDS011;56083;48.774;8.942;2022-11-12T11:36:33;2.92;;;1.00;;
69030;SDS011;56083;48.774;8.942;2022-11-12T11:39:20;1.95;;;1.10;;
69030;SDS011;56083;48.774;8.942;2022-11-12T11:42:05;3.25;;;1.50;;
69030;SDS011;56083;48.774;8.942;2022-11-12T11:57:28;2.65;;;1.60;;
69030;SDS011;56083;48.774;8.942;2022-11-12T12:07:50;4.95;;;3.28;;
69030;SDS011;56083;48.774;8.942;2022-11-12T12:10:21;5.32;;;3.20;;
69030;SDS011;56083;48.774;8.942;2022-11-12T12:20:25;7.05;;;3.22;;
69030;SDS011;56083;48.774;8.942;2022-11-12T12:23:22;6.25;;;3.10;;
69030;SDS011;56083;48.774;8.942;2022-11-12T12:25:43;4.65;;;2.95;;
69030;SDS011;56083;48.774;8.942;2022-11-12T12:30:42;5.15;;;3.47;;
69030;SDS011;56083;48.774;8.942;2022-11-12T12:35:57;6.55;;;3.28;;
69030;SDS011;56083;48.774;8.942;2022-11-12T12:43:54;7.80;;;3.88;;
69030;SDS011;56083;48.774;8.942;2022-11-12T12:46:23;5.63;;;4.03;;
69030;SDS011;56083;48.774;8.942;2022-11-12T12:48:50;6.35;;;3.50;;
69030;SDS011;56083;48.774;8.942;2022-11-12T12:51:17;6.68;;;4.20;;
69030;SDS011;56083;48.774;8.942;2022-11-12T12:53:44;6.78;;;4.25;;
69030;SDS011;56083;48.774;8.942;2022-11-12T13:03:43;7.75;;;4.38;;
69030;SDS011;56083;48.774;8.942;2022-11-12T13:08:40;10.43;;;4.18;;
69030;SDS011;56083;48.774;8.942;2022-11-12T13:11:06;7.13;;;4.20;;
69030;SDS011;56083;48.774;8.942;2022-11-12T13:13:36;8.60;;;4.35;;
69030;SDS011;56083;48.774;8.942;2022-11-12T13:16:02;7.47;;;4.43;;
69030;SDS011;56083;48.774;8.942;2022-11-12T13:21:14;6.97;;;4.43;;
69030;SDS011;56083;48.774;8.942;2022-11-12T13:23:42;9.50;;;4.90;;
69030;SDS011;56083;48.774;8.942;2022-11-12T13:29:23;9.85;;;4.90;;
69030;SDS011;56083;48.774;8.942;2022-11-12T13:32:22;8.50;;;4.70;;
69030;SDS011;56083;48.774;8.942;2022-11-12T13:34:35;8.32;;;4.82;;
69030;SDS011;56083;48.774;8.942;2022-11-12T13:37:02;8.15;;;4.72;;
69030;SDS011;56083;48.774;8.942;2022-11-12T13:39:31;8.00;;;5.18;;
69030;SDS011;56083;48.774;8.942;2022-11-12T13:41:58;6.53;;;5.00;;
69030;SDS011;56083;48.774;8.942;2022-11-12T13:44:44;12.00;;;5.97;;
69030;SDS011;56083;48.774;8.942;2022-11-12T13:47:12;11.30;;;5.25;;
69030;SDS011;56083;48.774;8.942;2022-11-12T13:49:41;9.05;;;5.22;;
69030;SDS011;56083;48.774;8.942;2022-11-12T13:52:07;10.55;;;5.72;;
69030;SDS011;56083;48.774;8.942;2022-11-12T13:54:34;10.68;;;5.43;;
69030;SDS011;56083;48.774;8.942;2022-11-12T13:57:14;9.18;;;5.88;;
69030;SDS011;56083;48.774;8.942;2022-11-12T13:59:41;10.35;;;5.70;;
69030;SDS011;56083;48.774;8.942;2022-11-12T14:02:15;10.20;;;5.38;;
69030;SDS011;56083;48.774;8.942;2022-11-12T14:04:43;7.53;;;4.63;;
69030;SDS011;56083;48.774;8.942;2022-11-12T14:22:35;7.90;;;5.05;;
69030;SDS011;56083;48.774;8.942;2022-11-12T14:25:02;6.05;;;4.72;;
69030;SDS011;56083;48.774;8.942;2022-11-12T14:32:37;8.48;;;6.05;;
69030;SDS011;56083;48.774;8.942;2022-11-12T14:35:19;8.68;;;5.57;;
69030;SDS011;56083;48.774;8.942;2022-11-12T14:37:47;10.60;;;5.70;;
69030;SDS011;56083;48.774;8.942;2022-11-12T14:40:17;14.38;;;6.32;;
69030;SDS011;56083;48.774;8.942;2022-11-12T14:42:43;10.02;;;6.30;;
69030;SDS011;56083;48.774;8.942;2022-11-12T14:45:16;13.80;;;6.50;;
69030;SDS011;56083;48.774;8.942;2022-11-12T14:47:43;9.90;;;5.90;;
69030;SDS011;56083;48.774;8.942;2022-11-12T14:50:13;10.90;;;6.60;;
69030;SDS011;56083;48.774;8.942;2022-11-12T14:52:41;17.02;;;6.57;;
69030;SDS011;56083;48.774;8.942;2022-11-12T14:55:14;8.90;;;6.40;;
69030;SDS011;56083;48.774;8.942;2022-11-12T14:57:41;13.02;;;6.93;;
69030;SDS011;56083;48.774;8.942;2022-11-12T15:02:46;11.10;;;6.78;;
69030;SDS011;56083;48.774;8.942;2022-11-12T15:05:13;12.13;;;7.13;;
69030;SDS011;56083;48.774;8.942;2022-11-12T15:07:53;13.88;;;7.07;;
69030;SDS011;56083;48.774;8.942;2022-11-12T15:10:36;12.10;;;7.28;;
69030;SDS011;56083;48.774;8.942;2022-11-12T15:13:19;13.20;;;7.50;;
69030;SDS011;56083;48.774;8.942;2022-11-12T15:15:50;11.97;;;7.33;;
69030;SDS011;56083;48.774;8.942;2022-11-12T15:18:20;14.27;;;7.70;;
69030;SDS011;56083;48.774;8.942;2022-11-12T15:23:32;11.38;;;7.38;;
69030;SDS011;56083;48.774;8.942;2022-11-12T15:25:59;13.55;;;8.02;;
69030;SDS011;56083;48.774;8.942;2022-11-12T15:28:25;11.93;;;8.07;;
69030;SDS011;56083;48.774;8.942;2022-11-12T15:31:04;12.00;;;7.50;;
69030;SDS011;56083;48.774;8.942;2022-11-12T15:33:30;20.13;;;12.55;;
69030;SDS011;56083;48.774;8.942;2022-11-12T15:35:57;18.75;;;11.05;;
69030;SDS011;56083;48.774;8.942;2022-11-12T15:38:31;14.35;;;9.15;;
69030;SDS011;56083;48.774;8.942;2022-11-12T15:41:02;15.63;;;9.55;;
69030;SDS011;56083;48.774;8.942;2022-11-12T15:43:31;17.77;;;9.95;;
69030;SDS011;56083;48.774;8.942;2022-11-12T15:45:57;20.25;;;11.45;;
69030;SDS011;56083;48.774;8.942;2022-11-12T15:48:23;20.08;;;13.27;;
69030;SDS011;56083;48.774;8.942;2022-11-12T15:50:49;20.55;;;15.02;;
69030;SDS011;56083;48.774;8.942;2022-11-12T15:53:15;18.58;;;12.57;;
69030;SDS011;56083;48.774;8.942;2022-11-12T15:55:42;28.65;;;17.95;;
69030;SDS011;56083;48.774;8.942;2022-11-12T15:58:13;49.22;;;29.42;;
69030;SDS011;56083;48.774;8.942;2022-11-12T16:00:40;30.90;;;19.20;;
69030;SDS011;56083;48.774;8.942;2022-11-12T16:03:13;24.13;;;14.55;;
69030;SDS011;56083;48.774;8.942;2022-11-12T16:05:40;17.13;;;11.77;;
69030;SDS011;56083;48.774;8.942;2022-11-12T16:08:06;22.67;;;15.18;;
69030;SDS011;56083;48.774;8.942;2022-11-12T16:10:32;25.63;;;16.17;;
69030;SDS011;56083;48.774;8.942;2022-11-12T16:12:58;23.70;;;15.32;;
69030;SDS011;56083;48.774;8.942;2022-11-12T16:15:25;23.42;;;14.30;;
69030;SDS011;56083;48.774;8.942;2022-11-12T16:17:51;27.58;;;15.55;;
69030;SDS011;56083;48.774;8.942;2022-11-12T16:20:23;31.77;;;17.20;;
69030;SDS011;56083;48.774;8.942;2022-11-12T16:22:49;27.52;;;15.73;;
69030;SDS011;56083;48.774;8.942;2022-11-12T16:25:16;23.50;;;14.68;;
69030;SDS011;56083;48.774;8.942;2022-11-12T16:27:42;21.73;;;12.98;;
69030;SDS011;56083;48.774;8.942;2022-11-12T16:30:12;26.67;;;15.85;;
69030;SDS011;56083;48.774;8.942;2022-11-12T16:32:39;28.88;;;16.30;;
69030;SDS011;56083;48.774;8.942;2022-11-12T16:35:05;25.42;;;14.73;;